Time;durP1;ratioP1;P1;durP2;ratioP2;P2;SDS_P1;SDS_P2;PMS_P1;PMS_P2;Temp;Humidity;BMP_temperature;BMP_pressure;BME280_temperature;BME280_humidity;BME280_pressure;Samples;Min_cycle;Max_cycle;Signal;HPM_P1;HPM_P2
2023/06/17 00:00:42;;;;;;;9.57;4.80;;;;;;;17.81;59.13;99712.97;12243302;19;20027;-84
2023/06/17 00:04:44;;;;;;;9.60;4.57;;;;;;;17.79;58.97;99706.03;12241915;19;20698;-86
2023/06/17 00:08:45;;;;;;;6.70;4.60;;;;;;;17.72;59.88;99701.63;12242386;19;20018;-85
2023/06/17 00:12:48;;;;;;;7.40;4.60;;;;;;;17.65;60.37;99697.59;12236260;19;20020;-85
2023/06/17 00:16:50;;;;;;;6.75;4.45;;;;;;;17.57;60.44;99693.50;12239910;19;20014;-83
2023/06/17 00:20:53;;;;;;;9.68;4.78;;;;;;;17.49;60.52;99692.22;12240631;19;20418;-84
2023/06/17 00:24:56;;;;;;;11.98;4.57;;;;;;;17.45;60.88;99695.88;12243753;19;20042;-81
2023/06/17 00:28:58;;;;;;;7.50;4.45;;;;;;;17.41;61.40;99689.25;12239768;19;20367;-85
2023/06/17 00:32:59;;;;;;;6.85;4.82;;;;;;;17.36;61.68;99683.75;12240835;19;20014;-83
2023/06/17 00:37:02;;;;;;;9.17;5.20;;;;;;;17.34;61.40;99686.00;12239566;19;20018;-84
2023/06/17 00:41:03;;;;;;;6.87;4.50;;;;;;;17.30;62.09;99678.25;12241712;19;20023;-84
2023/06/17 00:45:06;;;;;;;7.47;4.32;;;;;;;17.22;62.13;99678.91;12235702;19;20074;-86
2023/06/17 00:49:09;;;;;;;7.38;4.53;;;;;;;17.16;63.02;99677.28;12237374;19;20010;-83
2023/06/17 00:53:11;;;;;;;7.25;4.53;;;;;;;17.11;63.02;99682.94;12238779;19;20034;-84
2023/06/17 00:57:14;;;;;;;10.37;5.03;;;;;;;17.09;63.34;99682.41;12236907;19;20006;-85
2023/06/17 01:01:17;;;;;;;7.72;4.63;;;;;;;17.07;63.45;99679.06;12236813;19;20018;-84
2023/06/17 01:05:19;;;;;;;7.50;4.45;;;;;;;17.03;63.79;99683.59;12238154;19;20003;-85
2023/06/17 01:09:28;;;;;;;6.28;4.00;;;;;;;17.01;64.42;99694.19;12233902;19;20010;-81
2023/06/17 01:13:31;;;;;;;8.10;4.40;;;;;;;16.96;64.22;99680.34;12236779;19;20011;-84
2023/06/17 01:17:35;;;;;;;7.70;4.53;;;;;;;16.93;64.64;99678.16;12233414;19;21383;-83
2023/06/17 01:21:38;;;;;;;7.22;4.45;;;;;;;16.89;65.08;99677.88;12235002;19;20674;-83
2023/06/17 01:25:41;;;;;;;6.30;4.65;;;;;;;16.85;64.95;99674.88;12234991;19;20018;-81
2023/06/17 01:29:43;;;;;;;7.80;4.57;;;;;;;16.84;65.27;99672.41;12231938;19;20031;-83
2023/06/17 01:33:50;;;;;;;5.77;4.07;;;;;;;16.84;64.96;99687.13;12238042;19;20032;-84
2023/06/17 01:38:04;;;;;;;9.02;5.38;;;;;;;16.72;65.57;99692.25;12233341;19;20288;-82
2023/06/17 01:42:15;;;;;;;6.53;4.22;;;;;;;16.58;65.85;99685.69;12233644;19;20014;-84
2023/06/17 01:46:17;;;;;;;8.90;4.32;;;;;;;16.52;66.31;99682.13;12236120;19;20007;-84
2023/06/17 01:50:19;;;;;;;9.65;5.13;;;;;;;16.51;66.02;99687.97;12235127;19;20006;-84
2023/06/17 01:54:21;;;;;;;8.13;4.68;;;;;;;16.50;66.47;99686.31;12237790;19;20025;-84
2023/06/17 01:58:23;;;;;;;7.32;4.60;;;;;;;16.48;66.77;99688.56;12231857;19;20010;-84
2023/06/17 02:02:25;;;;;;;10.18;4.40;;;;;;;16.40;67.16;99685.28;12237592;19;20002;-83
2023/06/17 02:06:27;;;;;;;8.23;4.57;;;;;;;16.35;67.30;99685.31;12235072;19;20432;-83
2023/06/17 02:10:29;;;;;;;9.13;4.53;;;;;;;16.30;67.44;99688.19;12234193;19;20010;-84
2023/06/17 02:14:31;;;;;;;9.20;5.00;;;;;;;16.27;67.90;99679.56;12234010;19;20006;-84
2023/06/17 02:18:33;;;;;;;7.03;4.93;;;;;;;16.21;68.24;99683.50;12231211;19;20486;-85
2023/06/17 02:22:36;;;;;;;9.55;4.32;;;;;;;16.17;68.89;99686.03;12234405;19;20515;-85
2023/06/17 02:26:39;;;;;;;9.82;5.55;;;;;;;16.12;69.46;99683.28;12232126;19;20031;-84
2023/06/17 02:30:41;;;;;;;8.35;4.95;;;;;;;16.09;69.69;99672.75;12233035;19;20018;-85
2023/06/17 02:34:43;;;;;;;8.52;5.70;;;;;;;16.07;70.30;99672.22;12228763;19;20126;-84
2023/06/17 02:38:45;;;;;;;9.45;5.50;;;;;;;16.03;70.16;99676.69;12231464;19;20010;-84
2023/06/17 02:42:47;;;;;;;9.32;5.53;;;;;;;16.00;70.69;99669.75;12230356;19;20011;-81
2023/06/17 02:46:50;;;;;;;8.57;5.30;;;;;;;15.98;71.19;99668.41;12230032;19;20019;-84
2023/06/17 02:50:54;;;;;;;8.55;5.63;;;;;;;15.96;71.56;99668.69;12231153;19;20034;-85
2023/06/17 02:54:56;;;;;;;8.80;5.32;;;;;;;15.91;72.17;99658.47;12226798;19;20334;-84
2023/06/17 02:58:59;;;;;;;8.55;5.40;;;;;;;15.91;72.50;99665.94;12230309;19;20018;-84
2023/06/17 03:03:02;;;;;;;8.15;5.50;;;;;;;15.88;73.03;99658.19;12231659;19;20007;-84
2023/06/17 03:07:05;;;;;;;8.57;5.93;;;;;;;15.84;73.33;99660.72;12232503;19;20006;-83
2023/06/17 03:11:08;;;;;;;7.43;5.68;;;;;;;15.82;73.66;99662.13;12250073;19;20010;-85
2023/06/17 03:15:13;;;;;;;8.40;5.43;;;;;;;15.79;74.33;99660.75;12255516;19;20082;-85
2023/06/17 03:19:15;;;;;;;10.48;5.47;;;;;;;15.77;74.67;99667.72;12249550;19;20357;-82
2023/06/17 03:23:17;;;;;;;16.80;6.13;;;;;;;15.75;74.91;99669.94;12253906;19;20836;-85
2023/06/17 03:27:20;;;;;;;;;;;;;;;15.72;75.66;99680.50;12254787;19;20017;-84
2023/06/17 03:31:23;;;;;;;10.38;4.97;;;;;;;15.68;75.84;99675.84;12252300;19;20380;-82
2023/06/17 03:35:27;;;;;;;8.60;5.47;;;;;;;15.66;76.28;99683.59;12255918;19;20011;-85
2023/06/17 03:39:29;;;;;;;8.43;5.50;;;;;;;15.62;76.35;99672.22;12252003;19;20014;-85
2023/06/17 03:43:32;;;;;;;8.23;5.90;;;;;;;15.63;76.24;99682.19;12253132;19;20011;-83
2023/06/17 03:47:34;;;;;;;8.27;4.83;;;;;;;15.65;76.64;99679.16;12248997;19;20761;-83
2023/06/17 03:51:37;;;;;;;11.13;5.87;;;;;;;15.66;77.25;99681.63;12253214;19;20015;-84
2023/06/17 03:55:39;;;;;;;10.95;5.20;;;;;;;15.67;77.25;99680.53;12253192;19;20015;-84
2023/06/17 03:59:41;;;;;;;7.50;5.28;;;;;;;15.65;77.92;99679.16;12248626;19;20386;-85
2023/06/17 04:03:44;;;;;;;8.33;5.73;;;;;;;15.65;77.45;99681.94;12258605;19;20018;-85
2023/06/17 04:07:48;;;;;;;7.40;4.65;;;;;;;15.60;78.41;99691.09;12260785;19;20440;-84
2023/06/17 04:11:50;;;;;;;10.55;5.43;;;;;;;15.59;79.28;99681.13;12257001;19;20074;-85
2023/06/17 04:15:52;;;;;;;10.48;5.45;;;;;;;15.60;79.52;99684.72;12258257;19;20057;-85
2023/06/17 04:19:56;;;;;;;9.00;5.63;;;;;;;15.55;80.04;99677.25;12251936;19;20397;-85
2023/06/17 04:23:58;;;;;;;11.40;5.40;;;;;;;15.58;80.33;99675.84;12247002;19;20014;-84
2023/06/17 04:28:01;;;;;;;8.13;5.20;;;;;;;15.60;80.33;99673.63;12242413;19;20345;-85
2023/06/17 04:32:10;;;;;;;8.88;5.18;;;;;;;15.61;80.76;99675.28;12241501;19;20011;-83
2023/06/17 04:36:14;;;;;;;8.95;5.10;;;;;;;15.61;81.41;99670.53;12242056;19;20011;-82
2023/06/17 04:40:16;;;;;;;10.68;5.60;;;;;;;15.61;81.64;99678.03;12242187;19;20010;-85
2023/06/17 04:44:18;;;;;;;8.67;5.47;;;;;;;15.58;82.35;99679.44;12243911;19;20014;-84
2023/06/17 04:48:20;;;;;;;8.80;5.40;;;;;;;15.57;83.36;99679.75;12242990;19;20279;-81
2023/06/17 04:52:24;;;;;;;7.80;5.85;;;;;;;15.58;84.10;99675.84;12243285;19;20015;-85
2023/06/17 04:56:28;;;;;;;8.10;5.95;;;;;;;15.59;84.47;99683.09;12244714;19;20445;-85
2023/06/17 05:00:30;;;;;;;9.23;6.38;;;;;;;15.58;84.79;99671.13;12244854;19;20353;-85
2023/06/17 05:04:33;;;;;;;;;;;;;;;15.61;86.20;99678.88;12245265;19;20007;-85
2023/06/17 05:08:35;;;;;;;8.00;5.45;;;;;;;15.68;85.54;99686.94;12241805;19;19947;-84
2023/06/17 05:12:37;;;;;;;9.73;6.00;;;;;;;15.71;86.08;99681.63;12241192;19;20015;-84
2023/06/17 05:16:39;;;;;;;8.77;4.97;;;;;;;15.79;86.61;99690.47;12246138;19;20018;-83
2023/06/17 05:20:41;;;;;;;9.20;5.95;;;;;;;15.86;87.15;99693.78;12243731;19;20447;-85
2023/06/17 05:24:45;;;;;;;9.07;5.93;;;;;;;15.95;87.41;99686.50;12241189;19;20021;-85
2023/06/17 05:28:47;;;;;;;11.82;5.75;;;;;;;16.02;87.82;99691.72;12238083;19;20476;-85
2023/06/17 05:32:50;;;;;;;;;;;;;;;16.08;88.40;99691.38;12237956;19;20043;-86
2023/06/17 05:36:53;;;;;;;8.52;5.55;;;;;;;16.20;86.84;99701.31;12246350;19;19939;-83
2023/06/17 05:40:56;;;;;;;8.68;5.43;;;;;;;16.30;87.25;99696.50;12244301;19;20014;-84
2023/06/17 05:44:59;;;;;;;10.57;5.82;;;;;;;16.42;87.50;99698.91;12240203;19;20021;-86
2023/06/17 05:49:03;;;;;;;9.68;6.45;;;;;;;16.54;86.42;99709.66;12238052;19;20365;-85
2023/06/17 05:53:05;;;;;;;7.80;6.20;;;;;;;16.66;83.14;99704.53;12230501;19;20596;-82
2023/06/17 05:57:08;;;;;;;;;;;;;;;16.81;82.40;99703.59;12221055;19;20014;-82
2023/06/17 06:01:11;;;;;;;7.97;5.45;;;;;;;16.96;82.07;99703.44;12251223;19;19910;-82
2023/06/17 06:05:14;;;;;;;10.13;5.82;;;;;;;17.11;81.57;99705.22;12245038;19;20010;-85
2023/06/17 06:09:16;;;;;;;8.57;6.07;;;;;;;17.29;80.10;99709.19;12240721;19;20010;-84
2023/06/17 06:13:18;;;;;;;9.63;6.03;;;;;;;17.48;78.37;99718.41;12244827;19;20198;-83
2023/06/17 06:17:20;;;;;;;9.10;5.80;;;;;;;17.69;77.97;99713.38;12246767;19;20070;-85
2023/06/17 06:21:22;;;;;;;10.60;6.32;;;;;;;17.93;76.37;99723.69;12245986;19;20466;-86
2023/06/17 06:25:24;;;;;;;8.77;5.65;;;;;;;18.17;75.46;99726.38;12244130;19;20019;-86
2023/06/17 06:29:25;;;;;;;10.70;6.00;;;;;;;18.36;75.08;99727.22;12242096;19;20013;-85
2023/06/17 06:33:27;;;;;;;9.35;5.55;;;;;;;18.56;74.66;99731.63;12243441;19;20039;-84
2023/06/17 06:37:29;;;;;;;7.50;6.13;;;;;;;18.77;73.27;99729.34;12245795;19;20026;-84
2023/06/17 06:41:31;;;;;;;10.40;6.07;;;;;;;18.94;71.34;99725.94;12244961;19;20275;-84
2023/06/17 06:45:51;;;;;;;9.57;5.45;;;;;;;19.16;69.45;99727.25;12243405;19;20298;-83
2023/06/17 06:49:53;;;;;;;8.33;6.13;;;;;;;19.46;67.60;99731.41;12243921;19;20476;-86
2023/06/17 06:53:55;;;;;;;8.13;5.70;;;;;;;19.75;66.62;99736.66;12246010;19;20045;-87
2023/06/17 06:57:58;;;;;;;10.25;5.95;;;;;;;19.94;65.00;99739.34;12245867;19;20017;-83
2023/06/17 07:01:59;;;;;;;9.03;6.17;;;;;;;20.23;63.76;99738.94;12244515;19;20014;-84
2023/06/17 07:06:02;;;;;;;9.00;6.03;;;;;;;20.49;62.33;99742.78;12242569;19;20744;-83
2023/06/17 07:10:05;;;;;;;9.75;5.70;;;;;;;20.76;59.56;99746.59;12244301;19;20018;-86
2023/06/17 07:14:07;;;;;;;10.77;5.63;;;;;;;21.10;59.10;99743.19;12241565;19;20010;-83
2023/06/17 07:18:10;;;;;;;6.28;4.72;;;;;;;21.31;56.60;99746.25;12248711;19;20007;-85
2023/06/17 07:22:16;;;;;;;9.65;5.63;;;;;;;21.61;55.74;99754.97;12243665;19;20018;-84
2023/06/17 07:26:18;;;;;;;11.27;6.50;;;;;;;21.84;54.81;99756.53;12238308;19;20333;-85
2023/06/17 07:30:19;;;;;;;9.03;6.03;;;;;;;22.19;53.65;99759.44;12239994;19;20010;-83
2023/06/17 07:34:22;;;;;;;9.63;5.88;;;;;;;22.44;52.39;99745.72;12245146;19;20514;-84
2023/06/17 07:38:24;;;;;;;8.48;5.90;;;;;;;22.65;51.71;99746.69;12243493;19;20019;-83
2023/06/17 07:42:26;;;;;;;8.30;5.25;;;;;;;22.83;50.31;99747.50;12253643;19;20069;-83
2023/06/17 07:46:28;;;;;;;9.82;5.93;;;;;;;23.07;49.29;99744.16;12269726;19;20349;-86
2023/06/17 07:50:30;;;;;;;9.70;6.35;;;;;;;23.27;47.50;99747.41;12241950;19;20015;-85
2023/06/17 07:54:35;;;;;;;8.67;6.00;;;;;;;23.46;47.20;99742.19;12242015;19;20055;-85
2023/06/17 07:58:37;;;;;;;7.97;5.55;;;;;;;23.44;46.75;99736.09;12252687;19;20275;-84
2023/06/17 08:02:40;;;;;;;12.63;6.80;;;;;;;23.41;47.13;99737.59;12255780;19;20596;-83
2023/06/17 08:06:44;;;;;;;9.07;5.85;;;;;;;23.62;46.51;99737.66;12251140;19;20467;-85
2023/06/17 08:10:45;;;;;;;8.57;6.15;;;;;;;23.92;45.96;99728.41;12243732;19;20026;-82
2023/06/17 08:14:47;;;;;;;13.00;6.43;;;;;;;24.21;45.56;99734.00;12244444;19;20014;-85
2023/06/17 08:18:49;;;;;;;11.67;6.67;;;;;;;24.27;44.76;99727.00;12251262;19;20015;-84
2023/06/17 08:22:51;;;;;;;8.48;5.63;;;;;;;24.44;44.09;99726.03;12255203;19;20027;-84
2023/06/17 08:26:54;;;;;;;8.20;5.77;;;;;;;24.56;43.95;99719.63;12248766;19;20010;-85
2023/06/17 08:30:56;;;;;;;8.75;6.15;;;;;;;24.78;43.48;99710.81;12253877;19;20255;-86
2023/06/17 08:35:00;;;;;;;10.27;6.13;;;;;;;25.00;43.57;99711.56;12250746;19;20006;-85
2023/06/17 08:39:03;;;;;;;11.15;6.00;;;;;;;25.17;42.45;99719.03;12253578;19;20010;-84
2023/06/17 08:43:06;;;;;;;9.25;6.32;;;;;;;25.31;40.25;99711.03;12255010;19;19998;-86
2023/06/17 08:47:13;;;;;;;9.85;5.88;;;;;;;25.42;39.50;99708.59;12254287;19;20007;-85
2023/06/17 08:51:15;;;;;;;12.15;6.28;;;;;;;25.88;39.41;99709.31;12251409;19;20362;-85
2023/06/17 08:55:18;;;;;;;13.35;6.25;;;;;;;26.14;38.75;99706.88;12251610;19;20010;-83
2023/06/17 08:59:20;;;;;;;;;;;;;;;25.98;38.62;99702.34;12256525;19;20014;-84
2023/06/17 09:03:25;;;;;;;9.57;6.50;;;;;;;26.21;38.88;99703.47;12261242;19;19907;-82
2023/06/17 09:07:27;;;;;;;10.23;6.07;;;;;;;26.47;37.68;99693.69;12257047;19;20632;-81
2023/06/17 09:11:31;;;;;;;;;;;;;;;26.74;38.11;99697.72;12253519;19;20015;-84
2023/06/17 09:15:33;;;;;;;9.73;5.93;;;;;;;26.90;35.91;99698.59;12254918;19;20019;-83
2023/06/17 09:19:39;;;;;;;7.40;5.07;;;;;;;26.79;34.98;99692.63;12253015;19;20011;-85
2023/06/17 09:23:41;;;;;;;6.57;4.90;;;;;;;26.94;34.13;99698.69;12262987;19;20007;-81
2023/06/17 09:27:47;;;;;;;8.40;5.10;;;;;;;27.05;33.08;99691.31;12282800;19;20013;-81
2023/06/17 09:32:09;;;;;;;6.95;5.10;;;;;;;27.08;32.63;99687.75;12288883;19;20015;-81
2023/06/17 09:36:11;;;;;;;6.35;5.28;;;;;;;27.10;31.69;99678.88;12280792;19;20011;-81
2023/06/17 09:40:13;;;;;;;;;;;;;;;27.12;32.21;99668.84;12289081;19;20009;-80
2023/06/17 09:44:18;;;;;;;10.90;5.40;;;;;;;27.16;31.71;99675.47;12274976;19;20146;-82
2023/06/17 09:48:24;;;;;;;7.70;4.95;;;;;;;27.14;32.47;99668.50;12253287;19;20014;-80
2023/06/17 09:52:26;;;;;;;7.63;5.40;;;;;;;27.49;31.90;99665.78;12254475;19;20011;-83
2023/06/17 09:56:31;;;;;;;7.47;4.85;;;;;;;27.81;30.23;99660.91;12240288;19;20009;-82
2023/06/17 10:00:33;;;;;;;9.35;5.03;;;;;;;27.91;28.71;99660.31;12242111;19;20003;-82
2023/06/17 10:04:35;;;;;;;7.03;4.80;;;;;;;27.99;28.98;99657.63;12244129;19;20010;-83
2023/06/17 10:08:42;;;;;;;10.95;4.85;;;;;;;28.12;28.80;99642.97;12240904;19;20010;-85
2023/06/17 10:12:45;;;;;;;9.25;5.32;;;;;;;28.06;28.65;99643.66;12235741;19;20014;-81
2023/06/17 10:16:48;;;;;;;8.95;5.40;;;;;;;28.20;27.80;99638.28;12242329;19;20040;-83
2023/06/17 10:20:52;;;;;;;6.63;4.90;;;;;;;28.43;27.95;99644.03;12242870;19;20014;-82
2023/06/17 10:24:54;;;;;;;8.80;5.68;;;;;;;28.40;27.04;99637.06;12238525;19;20002;-80
2023/06/17 10:29:01;;;;;;;;;;;;;;;28.34;26.86;99632.06;12238435;19;20469;-84
2023/06/17 10:33:04;;;;;;;9.32;4.55;;;;;;;28.93;27.45;99622.28;12239589;19;19903;-83
2023/06/17 10:37:08;;;;;;;6.03;5.05;;;;;;;28.90;26.26;99627.91;12238141;19;20367;-81
2023/06/17 10:41:11;;;;;;;6.90;5.13;;;;;;;28.69;26.60;99636.84;12237979;19;20029;-82
2023/06/17 10:45:13;;;;;;;8.57;4.68;;;;;;;28.95;26.63;99625.56;12240102;19;20018;-84
2023/06/17 10:49:17;;;;;;;5.45;4.15;;;;;;;29.11;24.49;99628.31;12236939;19;20392;-82
2023/06/17 10:53:28;;;;;;;5.78;4.05;;;;;;;29.08;24.69;99637.56;12235490;19;20472;-79
2023/06/17 10:57:36;;;;;;;5.97;4.25;;;;;;;29.08;25.02;99631.91;12235390;19;20221;-79
2023/06/17 11:01:41;;;;;;;9.65;4.28;;;;;;;29.34;24.82;99628.28;12240458;19;20006;-82
2023/06/17 11:05:43;;;;;;;6.63;4.50;;;;;;;29.46;24.37;99630.91;12234912;19;20475;-81
2023/06/17 11:09:45;;;;;;;6.05;4.50;;;;;;;29.60;24.55;99624.63;12238391;19;20934;-83
2023/06/17 11:13:47;;;;;;;7.35;4.43;;;;;;;29.63;24.09;99625.91;12234483;19;20007;-81
2023/06/17 11:18:02;;;;;;;10.07;4.75;;;;;;;29.69;24.25;99616.69;12235668;19;20367;-82
2023/06/17 11:22:07;;;;;;;6.45;4.65;;;;;;;29.99;24.38;99624.41;12236722;19;20359;-81
2023/06/17 11:26:09;;;;;;;7.65;4.85;;;;;;;30.39;23.95;99615.16;12251460;19;20014;-81
2023/06/17 11:30:13;;;;;;;;;;;;;;;30.43;24.07;99618.88;12247323;19;20007;-81
2023/06/17 11:34:14;;;;;;;7.25;5.18;;;;;;;30.73;23.91;99602.91;12257432;19;19933;-81
2023/06/17 11:38:18;;;;;;;7.65;4.80;;;;;;;30.03;24.78;99607.38;12251032;19;20014;-80
2023/06/17 11:42:20;;;;;;;6.22;4.75;;;;;;;29.19;25.69;99609.38;12249736;19;20021;-81
2023/06/17 11:46:22;;;;;;;;;;;;;;;29.19;26.15;99603.72;12250813;19;20039;-78
2023/06/17 11:50:29;;;;;;;9.25;4.90;;;;;;;29.84;24.72;99605.53;12247307;19;19915;-79
2023/06/17 11:54:32;;;;;;;6.80;4.43;;;;;;;30.42;24.78;99580.28;12245125;19;20018;-79
2023/06/17 11:58:41;;;;;;;7.72;5.47;;;;;;;30.11;24.77;99586.41;12247660;19;20030;-76
2023/06/17 12:02:43;;;;;;;9.57;5.30;;;;;;;30.37;24.39;99579.78;12249013;19;20011;-78
2023/06/17 12:06:46;;;;;;;;;;;;;;;29.79;25.13;99578.28;12252610;19;20010;-82
2023/06/17 12:10:48;;;;;;;11.45;5.00;;;;;;;30.50;24.49;99569.81;12248800;19;20241;-81
2023/06/17 12:14:55;;;;;;;6.72;5.05;;;;;;;30.71;24.23;99568.38;12244807;19;20003;-81
2023/06/17 12:18:58;;;;;;;6.63;4.97;;;;;;;29.86;25.01;99575.50;12246609;19;20408;-80
2023/06/17 12:23:00;;;;;;;10.50;5.07;;;;;;;30.01;24.74;99570.00;12243264;19;20479;-80
2023/06/17 12:27:02;;;;;;;;;;;;;;;31.89;23.53;99558.69;12244946;19;20015;-79
2023/06/17 12:31:04;;;;;;;8.00;5.15;;;;;;;33.99;21.27;99559.19;12245218;19;19958;-81
2023/06/17 12:35:08;;;;;;;7.90;5.30;;;;;;;35.26;19.89;99544.47;12244160;19;20725;-78
2023/06/17 12:39:10;;;;;;;8.55;5.63;;;;;;;36.41;18.83;99529.59;12241466;19;20464;-81
2023/06/17 12:43:12;;;;;;;7.35;6.28;;;;;;;37.07;18.42;99533.91;12239342;19;20015;-77
2023/06/17 12:47:15;;;;;;;8.00;5.80;;;;;;;37.45;17.49;99535.66;12238096;19;20006;-77
2023/06/17 12:51:17;;;;;;;6.80;5.93;;;;;;;38.15;18.01;99523.19;12240689;19;20010;-80
2023/06/17 12:55:19;;;;;;;6.63;5.93;;;;;;;38.53;17.01;99527.25;12243680;19;20007;-78
2023/06/17 12:59:22;;;;;;;8.43;5.35;;;;;;;39.06;16.33;99506.19;12245970;19;20007;-82
2023/06/17 13:03:24;;;;;;;7.45;5.93;;;;;;;39.29;15.79;99513.81;12244695;19;20024;-80
2023/06/17 13:07:26;;;;;;;7.07;5.85;;;;;;;39.48;15.68;99515.00;12238766;19;20027;-79
2023/06/17 13:11:28;;;;;;;7.72;5.82;;;;;;;39.96;15.89;99525.53;12240894;19;20796;-78
2023/06/17 13:15:30;;;;;;;6.57;5.70;;;;;;;40.59;14.09;99511.66;12236853;19;20017;-76
2023/06/17 13:19:32;;;;;;;9.30;5.97;;;;;;;40.25;14.44;99505.31;12239040;19;20039;-77
2023/06/17 13:23:35;;;;;;;9.13;5.63;;;;;;;38.04;15.72;99511.91;12240105;19;20014;-77
2023/06/17 13:27:36;;;;;;;6.80;5.93;;;;;;;37.60;15.86;99502.53;12243266;19;20013;-80
2023/06/17 13:31:38;;;;;;;6.65;6.05;;;;;;;39.19;15.33;99493.47;12242966;19;20103;-79
2023/06/17 13:35:40;;;;;;;8.50;6.38;;;;;;;39.88;14.90;99493.19;12239948;19;20013;-79
2023/06/17 13:39:43;;;;;;;6.53;5.93;;;;;;;40.13;14.82;99496.59;12235297;19;20010;-77
2023/06/17 13:43:45;;;;;;;7.90;5.65;;;;;;;40.95;14.29;99485.28;12238188;19;20018;-76
2023/06/17 13:47:47;;;;;;;6.45;5.80;;;;;;;41.25;14.01;99497.47;12234680;19;20023;-77
2023/06/17 13:51:50;;;;;;;6.43;5.63;;;;;;;41.63;13.69;99480.78;12234326;19;20338;-77
2023/06/17 13:55:52;;;;;;;7.70;6.22;;;;;;;41.86;13.35;99484.47;12233985;19;20007;-78
2023/06/17 13:59:54;;;;;;;7.07;6.10;;;;;;;42.17;13.29;99475.81;12232654;19;20036;-78
2023/06/17 14:03:56;;;;;;;7.03;5.55;;;;;;;42.51;13.04;99466.19;12237769;19;20099;-78
2023/06/17 14:07:58;;;;;;;6.03;5.32;;;;;;;42.56;13.01;99480.00;12236378;19;20052;-78
2023/06/17 14:12:00;;;;;;;6.55;5.72;;;;;;;42.46;12.46;99477.59;12240479;19;20084;-79
2023/06/17 14:16:01;;;;;;;8.15;6.18;;;;;;;41.95;13.06;99478.75;12231175;19;20337;-77
2023/06/17 14:20:04;;;;;;;6.47;5.60;;;;;;;41.54;13.33;99479.91;12235481;19;20009;-78
2023/06/17 14:24:08;;;;;;;7.00;5.78;;;;;;;41.52;13.22;99474.59;12236631;19;20009;-78
2023/06/17 14:28:10;;;;;;;6.32;5.38;;;;;;;42.10;13.05;99462.44;12235221;19;20496;-79
2023/06/17 14:32:11;;;;;;;7.03;5.57;;;;;;;42.82;12.89;99455.81;12232234;19;20370;-77
2023/06/17 14:36:13;;;;;;;5.68;5.10;;;;;;;42.93;12.18;99445.38;12231930;19;20010;-78
2023/06/17 14:40:16;;;;;;;6.80;5.70;;;;;;;42.90;12.27;99445.53;12231145;19;20453;-78
2023/06/17 14:44:18;;;;;;;8.60;5.95;;;;;;;42.63;12.47;99446.22;12239881;19;19998;-78
2023/06/17 14:48:22;;;;;;;5.82;5.22;;;;;;;42.44;12.49;99440.41;12234381;19;20584;-78
2023/06/17 14:52:24;;;;;;;6.15;5.55;;;;;;;42.95;12.30;99436.19;12236182;19;20031;-78
2023/06/17 14:56:29;;;;;;;7.65;6.03;;;;;;;42.18;12.46;99439.78;12238316;19;20010;-78
2023/06/17 15:00:30;;;;;;;8.23;5.78;;;;;;;39.42;14.20;99442.66;12236018;19;20006;-78
2023/06/17 15:04:32;;;;;;;12.02;6.05;;;;;;;37.12;15.40;99441.47;12234300;19;20007;-78
2023/06/17 15:08:34;;;;;;;9.27;6.85;;;;;;;36.79;15.56;99437.53;12235112;19;20426;-78
2023/06/17 15:12:41;;;;;;;9.77;6.18;;;;;;;37.58;15.59;99428.25;12234263;19;20017;-78
2023/06/17 15:16:43;;;;;;;7.07;6.10;;;;;;;39.39;14.06;99421.31;12229013;19;20006;-77
2023/06/17 15:20:45;;;;;;;8.05;6.25;;;;;;;40.53;13.99;99413.25;12234558;19;20034;-77
2023/06/17 15:24:46;;;;;;;7.68;5.60;;;;;;;39.38;14.34;99408.16;12233397;19;20338;-79
2023/06/17 15:28:48;;;;;;;9.63;5.90;;;;;;;37.32;15.30;99407.00;12233968;19;20035;-78
2023/06/17 15:32:51;;;;;;;7.78;6.28;;;;;;;35.48;16.35;99407.53;12233151;19;20717;-79
2023/06/17 15:36:53;;;;;;;7.28;6.00;;;;;;;34.13;17.45;99401.09;12232479;19;20018;-77
2023/06/17 15:40:54;;;;;;;7.93;6.10;;;;;;;33.25;17.74;99415.38;12233710;19;20031;-77
2023/06/17 15:44:56;;;;;;;7.85;6.25;;;;;;;32.79;18.48;99411.41;12232308;19;20011;-76
2023/06/17 15:48:58;;;;;;;8.02;5.53;;;;;;;32.00;19.14;99410.56;12232252;19;20010;-78
2023/06/17 15:53:00;;;;;;;;;;;;;;;31.69;19.43;99409.25;12233194;19;20014;-77
2023/06/17 15:57:02;;;;;;;9.88;5.35;;;;;;;31.66;19.48;99407.22;12229784;19;19919;-78
2023/06/17 16:01:03;;;;;;;7.20;4.97;;;;;;;31.31;19.63;99406.63;12232153;19;22676;-77
2023/06/17 16:05:09;;;;;;;7.53;5.38;;;;;;;30.96;20.06;99409.31;12234102;19;20062;-77
2023/06/17 16:09:10;;;;;;;8.27;4.97;;;;;;;30.57;20.31;99404.94;12229781;19;20010;-77
2023/06/17 16:13:12;;;;;;;7.25;5.30;;;;;;;30.57;20.91;99410.63;12228799;19;20643;-78
2023/06/17 16:17:14;;;;;;;7.18;4.93;;;;;;;30.67;20.60;99414.78;12231075;19;20006;-77
2023/06/17 16:21:16;;;;;;;6.90;5.28;;;;;;;30.63;20.66;99402.56;12247412;19;20346;-78
2023/06/17 16:25:18;;;;;;;7.40;5.00;;;;;;;30.60;20.61;99397.66;12245732;19;20010;-78
2023/06/17 16:29:19;;;;;;;9.45;5.30;;;;;;;30.44;20.69;99392.28;12244523;19;20022;-78
2023/06/17 16:33:21;;;;;;;8.88;5.28;;;;;;;30.23;21.16;99392.91;12243691;19;20006;-78
2023/06/17 16:37:23;;;;;;;7.03;5.00;;;;;;;30.05;20.67;99403.28;12243946;19;20369;-78
2023/06/17 16:41:26;;;;;;;8.15;4.50;;;;;;;29.98;20.62;99396.31;12244012;19;20100;-78
2023/06/17 16:45:28;;;;;;;7.72;5.22;;;;;;;29.91;21.21;99396.22;12242366;19;20014;-78
2023/06/17 16:49:30;;;;;;;5.43;4.30;;;;;;;29.78;20.63;99389.22;12243033;19;20018;-78
2023/06/17 16:53:33;;;;;;;7.70;4.47;;;;;;;29.65;20.48;99390.69;12245081;19;20014;-78
2023/06/17 16:57:35;;;;;;;5.90;4.70;;;;;;;29.51;20.70;99399.84;12247469;19;20007;-78
2023/06/17 17:01:38;;;;;;;6.82;4.50;;;;;;;29.35;20.83;99399.22;12249166;19;20607;-78
2023/06/17 17:05:41;;;;;;;7.20;4.45;;;;;;;29.36;21.05;99401.69;12244017;19;20022;-79
2023/06/17 17:09:43;;;;;;;11.30;4.90;;;;;;;29.35;20.85;99397.19;12243239;19;20015;-78
2023/06/17 17:13:45;;;;;;;7.63;5.15;;;;;;;29.33;21.24;99401.63;12248748;19;20010;-79
2023/06/17 17:17:50;;;;;;;5.50;4.25;;;;;;;29.28;21.18;99403.59;12242281;19;20015;-78
2023/06/17 17:21:52;;;;;;;8.55;5.57;;;;;;;29.28;21.07;99389.41;12245650;19;20013;-78
2023/06/17 17:25:54;;;;;;;9.35;5.50;;;;;;;29.22;20.97;99388.13;12243185;19;20018;-79
2023/06/17 17:29:56;;;;;;;8.65;5.30;;;;;;;29.19;21.38;99396.59;12240979;19;20014;-78
2023/06/17 17:33:58;;;;;;;7.07;4.60;;;;;;;29.09;21.49;99400.91;12240663;19;20467;-80
2023/06/17 17:38:00;;;;;;;7.20;4.72;;;;;;;29.03;21.54;99400.44;12240172;19;20035;-80
2023/06/17 17:42:01;;;;;;;6.28;4.68;;;;;;;28.97;22.00;99410.47;12243870;19;20006;-79
2023/06/17 17:46:04;;;;;;;8.77;4.80;;;;;;;28.78;22.33;99413.41;12245920;19;20007;-80
2023/06/17 17:50:07;;;;;;;11.50;4.85;;;;;;;28.59;22.43;99412.34;12243277;19;20007;-81
2023/06/17 17:54:08;;;;;;;7.25;5.00;;;;;;;28.41;22.91;99416.91;12247891;19;20351;-80
2023/06/17 17:58:10;;;;;;;7.22;4.85;;;;;;;28.21;23.04;99409.63;12248555;19;20391;-79
2023/06/17 18:02:12;;;;;;;7.70;4.50;;;;;;;27.99;23.91;99417.75;12252022;19;20452;-80
2023/06/17 18:06:15;;;;;;;8.10;4.63;;;;;;;27.73;24.34;99424.94;12256071;19;20006;-79
2023/06/17 18:10:16;;;;;;;6.97;4.43;;;;;;;27.48;24.95;99420.78;12248874;19;20010;-79
2023/06/17 18:14:18;;;;;;;8.20;4.53;;;;;;;27.25;25.44;99421.53;12246163;19;20006;-81
2023/06/17 18:18:20;;;;;;;5.78;4.68;;;;;;;27.03;26.31;99427.88;12246409;19;20614;-81
2023/06/17 18:22:22;;;;;;;8.63;4.95;;;;;;;26.80;27.13;99437.06;12250312;19;20006;-80
2023/06/17 18:26:24;;;;;;;6.95;4.75;;;;;;;26.57;27.79;99425.59;12247859;19;20006;-82
2023/06/17 18:30:28;;;;;;;6.18;4.45;;;;;;;26.36;28.05;99430.72;12239161;19;20042;-81
2023/06/17 18:34:29;;;;;;;7.50;4.70;;;;;;;26.17;28.59;99424.97;12239423;19;20014;-80
2023/06/17 18:38:31;;;;;;;5.85;4.00;;;;;;;25.96;29.25;99431.69;12242365;19;20006;-79
2023/06/17 18:42:33;;;;;;;8.38;4.38;;;;;;;25.79;29.39;99430.00;12243845;19;19998;-80
2023/06/17 18:46:36;;;;;;;11.50;5.03;;;;;;;25.63;29.83;99429.13;12235487;19;20321;-80
2023/06/17 18:50:38;;;;;;;7.28;4.68;;;;;;;25.43;30.45;99431.81;12236295;19;20666;-81